Time;durP1;ratioP1;P1;durP2;ratioP2;P2;SDS_P1;SDS_P2;PMS_P1;PMS_P2;Temp;Humidity;BMP_temperature;BMP_pressure;BME280_temperature;BME280_humidity;BME280_pressure;Samples;Min_cycle;Max_cycle;Signal;HPM_P1;HPM_P2
2022/12/09 00:00:56;;;;;;;1.90;1.30;;;4.20;34.30;;;;;;5075979;28;20537;-72
2022/12/09 00:03:22;;;;;;;2.03;1.48;;;4.20;34.40;;;;;;5072943;28;20203;-72
2022/12/09 00:05:49;;;;;;;1.80;1.17;;;4.30;34.40;;;;;;5077144;28;20189;-72
2022/12/09 00:08:15;;;;;;;2.38;1.65;;;4.40;34.00;;;;;;5070018;28;20436;-73
2022/12/09 00:10:43;;;;;;;1.80;1.20;;;4.40;33.70;;;;;;5075912;28;20271;-72
2022/12/09 00:13:09;;;;;;;2.25;1.65;;;4.30;33.50;;;;;;5074358;28;20468;-72
2022/12/09 00:15:39;;;;;;;3.40;2.43;;;4.10;33.60;;;;;;5075165;28;20187;-72
2022/12/09 00:18:05;;;;;;;2.10;1.55;;;4.00;34.60;;;;;;5078420;28;20187;-73
2022/12/09 00:20:30;;;;;;;2.00;1.30;;;3.90;34.30;;;;;;5079342;28;20562;-72
2022/12/09 00:22:56;;;;;;;4.80;2.40;;;3.80;35.00;;;;;;5078094;28;20211;-72
2022/12/09 00:25:22;;;;;;;2.20;1.40;;;3.80;34.90;;;;;;5081776;28;20183;-72
2022/12/09 00:27:47;;;;;;;4.53;2.47;;;3.90;34.80;;;;;;5084735;28;20235;-72
2022/12/09 00:30:13;;;;;;;2.30;1.80;;;4.10;34.80;;;;;;5078225;28;20594;-72
2022/12/09 00:32:39;;;;;;;2.37;1.53;;;4.00;34.50;;;;;;5078030;28;20198;-72
2022/12/09 00:35:05;;;;;;;1.70;1.10;;;4.00;34.60;;;;;;5081739;28;20197;-72
2022/12/09 00:37:32;;;;;;;2.73;1.60;;;4.10;35.00;;;;;;5077667;28;20273;-72
2022/12/09 00:39:57;;;;;;;1.90;1.23;;;4.10;35.40;;;;;;5079916;28;20465;-72
2022/12/09 00:42:23;;;;;;;1.80;1.20;;;4.00;35.20;;;;;;5077038;28;20222;-73
2022/12/09 00:44:48;;;;;;;1.97;1.20;;;4.10;34.60;;;;;;5078877;28;20190;-72
2022/12/09 00:47:14;;;;;;;1.97;1.30;;;4.30;34.40;;;;;;5080335;28;20175;-72
2022/12/09 00:49:39;;;;;;;2.00;1.47;;;4.40;33.30;;;;;;5065261;28;20301;-72
2022/12/09 00:52:05;;;;;;;3.60;1.70;;;4.40;33.30;;;;;;5080101;28;20206;-72
2022/12/09 00:54:31;;;;;;;2.20;1.50;;;4.30;34.30;;;;;;5079081;28;20210;-72
2022/12/09 00:56:56;;;;;;;2.40;1.70;;;4.10;34.80;;;;;;5078772;28;20249;-72
2022/12/09 00:59:22;;;;;;;1.90;1.30;;;4.00;34.50;;;;;;5076169;28;20720;-72
2022/12/09 01:01:48;;;;;;;4.03;2.27;;;3.80;34.60;;;;;;5081921;28;20195;-72
2022/12/09 01:04:13;;;;;;;2.27;1.50;;;3.40;35.60;;;;;;5076441;28;20266;-73
2022/12/09 01:06:39;;;;;;;1.90;1.20;;;3.40;36.20;;;;;;5083846;28;20186;-72
2022/12/09 01:09:04;;;;;;;1.90;1.30;;;3.60;35.80;;;;;;5079533;28;20202;-73
2022/12/09 01:11:30;;;;;;;2.43;1.53;;;3.60;36.00;;;;;;5080256;28;20202;-72
2022/12/09 01:14:00;;;;;;;2.70;1.90;;;3.70;34.90;;;;;;5078715;28;21031;-72
2022/12/09 01:16:28;;;;;;;2.15;1.45;;;4.00;34.90;;;;;;5080185;28;20184;-72
2022/12/09 01:18:56;;;;;;;1.88;1.23;;;4.10;34.10;;;;;;5080274;28;20182;-73
2022/12/09 01:21:23;;;;;;;5.18;2.97;;;4.20;33.50;;;;;;5077153;28;20258;-74
2022/12/09 01:23:49;;;;;;;1.90;1.20;;;4.00;34.10;;;;;;5075220;28;20221;-72
2022/12/09 01:26:14;;;;;;;2.10;1.50;;;3.70;34.90;;;;;;5078084;28;20186;-72
2022/12/09 01:28:40;;;;;;;2.60;1.50;;;3.60;35.60;;;;;;5078610;28;20183;-72
2022/12/09 01:31:15;;;;;;;2.30;1.70;;;3.70;34.90;;;;;;5078149;28;20179;-72
2022/12/09 01:33:41;;;;;;;2.30;1.70;;;3.70;34.80;;;;;;5064382;28;20252;-73
2022/12/09 01:36:10;;;;;;;2.00;1.30;;;3.80;35.00;;;;;;5073374;28;20203;-72
2022/12/09 01:38:36;;;;;;;1.98;1.33;;;3.70;35.20;;;;;;5079515;28;20250;-72
2022/12/09 01:41:02;;;;;;;2.03;1.33;;;3.60;34.80;;;;;;5075994;28;20638;-74
2022/12/09 01:43:28;;;;;;;2.10;1.38;;;3.40;35.80;;;;;;5075781;28;20237;-72
2022/12/09 01:45:54;;;;;;;2.17;1.53;;;3.30;36.10;;;;;;5077531;28;20187;-72
2022/12/09 01:48:32;;;;;;;3.08;1.85;;;3.50;35.80;;;;;;5078703;28;20437;-73
2022/12/09 01:51:01;;;;;;;3.35;1.90;;;3.50;35.40;;;;;;5083399;28;20214;-72
2022/12/09 01:53:33;;;;;;;2.40;1.60;;;3.30;35.60;;;;;;5082304;28;20215;-72
2022/12/09 01:56:04;;;;;;;1.98;1.20;;;3.40;35.60;;;;;;5079206;28;20175;-73
2022/12/09 01:58:30;;;;;;;2.00;1.30;;;3.40;35.10;;;;;;5080523;28;20218;-72
2022/12/09 02:00:56;;;;;;;2.10;1.40;;;3.50;34.60;;;;;;5078226;28;20217;-72
2022/12/09 02:03:21;;;;;;;3.13;2.03;;;3.50;35.30;;;;;;5077195;28;20864;-73
2022/12/09 02:05:47;;;;;;;1.90;1.10;;;3.30;35.80;;;;;;5077617;28;20202;-73
2022/12/09 02:08:16;;;;;;;2.30;1.50;;;3.50;35.10;;;;;;5078640;28;20662;-73
2022/12/09 02:11:03;;;;;;;2.30;1.50;;;3.40;35.00;;;;;;5077360;28;20237;-72
2022/12/09 02:13:35;;;;;;;2.30;1.60;;;3.20;36.00;;;;;;5076301;28;20253;-73
2022/12/09 02:16:07;;;;;;;2.10;1.30;;;3.20;35.70;;;;;;5076731;28;20179;-72
2022/12/09 02:18:40;;;;;;;2.05;1.25;;;3.10;36.30;;;;;;5081436;28;20648;-72
2022/12/09 02:21:14;;;;;;;2.20;1.50;;;3.40;35.20;;;;;;5082404;28;20222;-73
2022/12/09 02:23:45;;;;;;;2.10;1.30;;;3.40;34.90;;;;;;5078621;28;20576;-73
2022/12/09 02:26:22;;;;;;;2.20;1.40;;;3.40;35.20;;;;;;5071442;28;20299;-72
2022/12/09 02:28:56;;;;;;;4.95;2.38;;;3.40;35.00;;;;;;5074135;28;20182;-73
2022/12/09 02:32:07;;;;;;;2.17;1.40;;;3.50;34.60;;;;;;5079035;28;20185;-72
2022/12/09 02:34:35;;;;;;;2.00;1.20;;;3.40;34.70;;;;;;5047026;28;20276;-72
2022/12/09 02:37:16;;;;;;;2.30;1.75;;;3.00;36.50;;;;;;5077236;28;20548;-71
2022/12/09 02:39:56;;;;;;;2.10;1.30;;;3.00;35.80;;;;;;5070524;28;20198;-73
2022/12/09 02:42:25;;;;;;;2.17;1.40;;;3.00;36.00;;;;;;5073895;28;20572;-72
2022/12/09 02:44:51;;;;;;;2.00;1.20;;;3.10;36.10;;;;;;5078314;28;20183;-72
2022/12/09 02:47:23;;;;;;;2.50;1.75;;;3.00;36.30;;;;;;5073099;28;20194;-72
2022/12/09 02:49:53;;;;;;;2.10;1.30;;;3.00;37.10;;;;;;5074700;28;20183;-72
2022/12/09 02:52:20;;;;;;;2.00;1.20;;;3.30;36.10;;;;;;5074698;28;20215;-73
2022/12/09 02:54:46;;;;;;;2.30;1.50;;;3.30;35.20;;;;;;5073199;28;20206;-72
2022/12/09 02:57:18;;;;;;;3.63;2.45;;;3.40;34.90;;;;;;5085202;28;20195;-72
2022/12/09 02:59:43;;;;;;;4.15;2.03;;;3.50;34.80;;;;;;5070681;28;20252;-72
2022/12/09 03:02:32;;;;;;;2.73;1.67;;;3.30;35.20;;;;;;5075759;28;20801;-72
2022/12/09 03:04:57;;;;;;;2.00;1.20;;;3.10;36.50;;;;;;5073453;28;20198;-72
2022/12/09 03:07:36;;;;;;;2.27;1.50;;;3.10;36.60;;;;;;5075608;28;20657;-73
2022/12/09 03:10:26;;;;;;;2.10;1.50;;;3.30;35.60;;;;;;5073689;28;20171;-72
2022/12/09 03:13:03;;;;;;;4.47;3.22;;;3.20;35.80;;;;;;5072595;28;20585;-72
2022/12/09 03:15:33;;;;;;;2.63;1.75;;;3.10;36.10;;;;;;5079461;28;20673;-72
2022/12/09 03:18:05;;;;;;;4.82;2.60;;;3.00;36.80;;;;;;5075380;28;20190;-72
2022/12/09 03:20:36;;;;;;;18.50;3.45;;;2.90;36.10;;;;;;5073175;28;20179;-72
2022/12/09 03:23:04;;;;;;;3.78;2.53;;;2.80;36.20;;;;;;5075412;28;20225;-73
2022/12/09 03:25:37;;;;;;;4.03;2.53;;;2.70;36.40;;;;;;5080311;28;20262;-72
2022/12/09 03:28:16;;;;;;;2.17;1.40;;;2.90;36.40;;;;;;5077322;28;20267;-73
2022/12/09 03:30:43;;;;;;;2.00;1.33;;;2.80;36.40;;;;;;5065734;28;20171;-72
2022/12/09 03:33:12;;;;;;;2.85;1.75;;;2.90;36.00;;;;;;5075049;28;20191;-73
2022/12/09 03:35:43;;;;;;;2.85;1.80;;;3.00;35.90;;;;;;5077118;28;20704;-72
2022/12/09 03:38:13;;;;;;;2.10;1.30;;;3.00;36.30;;;;;;5071153;28;20650;-72
2022/12/09 03:40:40;;;;;;;2.00;1.30;;;2.90;36.10;;;;;;5070204;28;20630;-71
2022/12/09 03:43:17;;;;;;;1.90;1.20;;;2.80;37.20;;;;;;5077271;28;20202;-72
2022/12/09 03:45:42;;;;;;;2.60;1.83;;;2.90;36.30;;;;;;5066792;28;20171;-72
2022/12/09 03:48:09;;;;;;;2.97;1.87;;;3.10;35.90;;;;;;5077639;28;20175;-72
2022/12/09 03:50:48;;;;;;;4.05;1.70;;;3.10;35.60;;;;;;5081130;28;20203;-71
2022/12/09 03:53:17;;;;;;;2.10;1.30;;;3.30;35.10;;;;;;5080058;28;20617;-72
2022/12/09 03:56:12;;;;;;;2.47;1.55;;;3.20;35.10;;;;;;5081387;28;20170;-71
2022/12/09 03:58:41;;;;;;;1.90;1.20;;;3.10;35.80;;;;;;5073784;28;20591;-72
2022/12/09 04:01:08;;;;;;;2.15;1.50;;;3.00;35.90;;;;;;5077432;28;20568;-71
2022/12/09 04:03:34;;;;;;;3.40;1.70;;;3.00;36.00;;;;;;5068079;28;20183;-71
2022/12/09 04:05:59;;;;;;;2.30;1.60;;;4.50;37.50;;;;;;5077221;28;20599;-71
2022/12/09 04:08:25;;;;;;;2.10;1.33;;;3.00;36.60;;;;;;5072835;28;20446;-72
2022/12/09 04:10:51;;;;;;;3.40;2.60;;;3.00;36.10;;;;;;5076146;28;20183;-71
2022/12/09 04:13:16;;;;;;;3.60;2.33;;;3.00;36.30;;;;;;5078037;28;20282;-72
2022/12/09 04:15:42;;;;;;;2.27;1.50;;;3.10;35.70;;;;;;5079120;28;20175;-72
2022/12/09 04:18:07;;;;;;;2.20;1.30;;;3.10;35.90;;;;;;5080157;28;20646;-72
2022/12/09 04:20:33;;;;;;;1.97;1.27;;;3.00;35.90;;;;;;5079660;28;20591;-72
2022/12/09 04:22:59;;;;;;;2.10;1.40;;;2.90;35.90;;;;;;5053826;28;20199;-72
2022/12/09 04:25:24;;;;;;;2.13;1.33;;;3.10;35.70;;;;;;5051924;28;20213;-73
2022/12/09 04:27:50;;;;;;;2.10;1.40;;;3.00;36.00;;;;;;5074741;28;20444;-72
2022/12/09 04:30:16;;;;;;;3.27;2.03;;;3.00;36.30;;;;;;5076365;28;20176;-72
2022/12/09 04:32:42;;;;;;;2.30;1.20;;;3.00;36.60;;;;;;5076439;28;20452;-71
2022/12/09 04:35:08;;;;;;;2.08;1.38;;;3.10;36.90;;;;;;5068470;28;20461;-72
2022/12/09 04:37:36;;;;;;;3.40;2.15;;;3.10;36.20;;;;;;5076094;28;20670;-72
2022/12/09 04:40:05;;;;;;;2.28;1.45;;;3.00;36.40;;;;;;5076519;28;20178;-72
2022/12/09 04:42:31;;;;;;;2.00;1.30;;;3.00;36.60;;;;;;5077607;28;20199;-74
2022/12/09 04:44:56;;;;;;;2.10;1.40;;;3.10;36.10;;;;;;5073972;28;20657;-72
2022/12/09 04:47:22;;;;;;;2.10;1.43;;;3.40;34.90;;;;;;5073900;28;20665;-72
2022/12/09 04:49:48;;;;;;;1.90;1.20;;;3.60;34.10;;;;;;5075848;28;20218;-72
2022/12/09 04:52:16;;;;;;;2.58;1.52;;;3.50;34.30;;;;;;5050080;28;20211;-72
2022/12/09 04:54:42;;;;;;;2.65;2.05;;;3.60;34.10;;;;;;5072540;28;20294;-72
2022/12/09 04:57:07;;;;;;;1.90;1.20;;;3.40;34.30;;;;;;5073867;28;20254;-72
2022/12/09 04:59:33;;;;;;;2.20;1.60;;;3.40;35.30;;;;;;5071242;28;20183;-72
2022/12/09 05:01:59;;;;;;;3.50;2.00;;;3.50;34.60;;;;;;5072358;28;20203;-72
2022/12/09 05:04:24;;;;;;;1.90;1.20;;;3.50;34.70;;;;;;5074299;28;20187;-72
2022/12/09 05:06:50;;;;;;;2.60;1.70;;;3.30;35.50;;;;;;5079249;28;20181;-72
2022/12/09 05:09:15;;;;;;;4.73;2.33;;;3.30;35.40;;;;;;5078239;28;20211;-73
2022/12/09 05:11:41;;;;;;;2.40;1.60;;;3.30;35.40;;;;;;5074326;28;20210;-72
2022/12/09 05:14:07;;;;;;;2.10;1.20;;;3.20;36.00;;;;;;5073341;28;20207;-72
2022/12/09 05:16:32;;;;;;;2.10;1.40;;;3.20;36.20;;;;;;5078206;28;20644;-72
2022/12/09 05:18:58;;;;;;;2.53;1.87;;;3.20;36.20;;;;;;5080248;28;20181;-72
2022/12/09 05:21:24;;;;;;;2.60;1.63;;;3.40;36.00;;;;;;5078713;28;20281;-72
2022/12/09 05:23:50;;;;;;;3.23;2.37;;;3.40;35.80;;;;;;5080456;28;20210;-72
2022/12/09 05:26:20;;;;;;;2.10;1.40;;;3.30;35.50;;;;;;5077626;28;20186;-72
2022/12/09 05:28:46;;;;;;;3.38;1.80;;;3.20;36.00;;;;;;5073047;28;20183;-71
2022/12/09 05:31:15;;;;;;;2.00;1.20;;;3.10;35.90;;;;;;5079343;28;20240;-72
2022/12/09 05:33:41;;;;;;;3.47;2.20;;;3.00;36.00;;;;;;5079342;28;20507;-72
2022/12/09 05:36:12;;;;;;;3.30;2.57;;;3.10;36.30;;;;;;5079557;28;20184;-72
2022/12/09 05:38:38;;;;;;;2.63;1.52;;;3.00;36.20;;;;;;5076889;28;20437;-72
2022/12/09 05:41:04;;;;;;;5.78;2.75;;;3.20;36.10;;;;;;5075340;28;20211;-72
2022/12/09 05:43:31;;;;;;;2.00;1.20;;;3.60;35.00;;;;;;5080721;28;20241;-72
2022/12/09 05:45:56;;;;;;;2.00;1.20;;;3.80;35.30;;;;;;5078767;28;20507;-71
2022/12/09 05:48:22;;;;;;;2.20;1.50;;;3.80;34.30;;;;;;5079318;28;20576;-72
2022/12/09 05:51:03;;;;;;;2.10;1.40;;;3.70;34.80;;;;;;5082094;28;20205;-72
2022/12/09 05:53:29;;;;;;;2.08;1.30;;;3.60;35.10;;;;;;5071509;28;20222;-72
2022/12/09 05:55:55;;;;;;;1.90;1.27;;;3.40;35.70;;;;;;5076982;28;20183;-73
2022/12/09 05:58:20;;;;;;;2.43;1.70;;;3.50;35.70;;;;;;5078163;28;20424;-72
2022/12/09 06:00:47;;;;;;;3.07;1.90;;;3.50;36.20;;;;;;5078316;28;20261;-72
2022/12/09 06:03:13;;;;;;;3.00;1.80;;;3.50;35.80;;;;;;5076083;28;20461;-72
2022/12/09 06:05:38;;;;;;;2.23;1.53;;;3.50;35.90;;;;;;5075937;28;20179;-72
2022/12/09 06:08:05;;;;;;;2.10;1.50;;;3.30;36.40;;;;;;5075408;28;20176;-72
2022/12/09 06:10:30;;;;;;;1.90;1.20;;;3.30;36.40;;;;;;5077875;28;20486;-71
2022/12/09 06:12:56;;;;;;;3.30;2.50;;;5.40;37.90;;;;;;5054923;28;20320;-72
2022/12/09 06:15:23;;;;;;;2.60;1.50;;;3.40;36.20;;;;;;5075937;28;20448;-72
2022/12/09 06:17:49;;;;;;;2.20;1.40;;;3.30;36.20;;;;;;5077084;28;20195;-72
2022/12/09 06:20:15;;;;;;;2.20;1.58;;;3.50;35.90;;;;;;5073762;28;20191;-72
2022/12/09 06:22:41;;;;;;;2.00;1.30;;;3.50;35.90;;;;;;5073849;28;20210;-72
2022/12/09 06:25:07;;;;;;;1.90;1.20;;;3.60;36.00;;;;;;5074015;28;20183;-72
2022/12/09 06:27:32;;;;;;;4.33;2.00;;;3.60;35.40;;;;;;5076273;28;20549;-72
2022/12/09 06:29:58;;;;;;;2.43;1.87;;;3.60;35.90;;;;;;5077973;28;20181;-72
2022/12/09 06:32:24;;;;;;;1.90;1.30;;;3.50;35.80;;;;;;5077844;28;20207;-72
2022/12/09 06:34:49;;;;;;;2.00;1.20;;;3.50;36.10;;;;;;5074570;28;20203;-72
2022/12/09 06:37:15;;;;;;;3.27;2.50;;;3.40;36.30;;;;;;5077770;28;20266;-72
2022/12/09 06:39:41;;;;;;;2.07;1.40;;;3.50;36.50;;;;;;5074064;28;20212;-77
2022/12/09 06:42:07;;;;;;;1.90;1.20;;;3.30;36.60;;;;;;5084818;28;20979;-77
2022/12/09 06:44:33;;;;;;;2.10;1.40;;;3.20;36.50;;;;;;5075034;28;20672;-77
2022/12/09 06:46:59;;;;;;;3.60;2.67;;;3.10;37.00;;;;;;5075946;28;20233;-78
2022/12/09 06:49:24;;;;;;;2.00;1.20;;;2.90;37.90;;;;;;5078065;28;20671;-74
2022/12/09 06:51:50;;;;;;;2.30;1.67;;;2.70;39.10;;;;;;5071809;28;20226;-73
2022/12/09 06:54:16;;;;;;;2.13;1.43;;;2.60;39.30;;;;;;5063328;28;20465;-72
2022/12/09 06:56:42;;;;;;;4.63;1.60;;;2.70;38.80;;;;;;5071507;28;20991;-72
2022/12/09 06:59:09;;;;;;;2.00;1.30;;;2.70;39.10;;;;;;5070364;28;20936;-72
2022/12/09 07:01:36;;;;;;;1.90;1.20;;;2.90;38.60;;;;;;5062950;28;20299;-72
2022/12/09 07:04:04;;;;;;;2.92;1.95;;;3.10;38.10;;;;;;5072478;28;20175;-71
2022/12/09 07:06:33;;;;;;;3.42;2.58;;;3.20;37.50;;;;;;5064060;28;20552;-71
2022/12/09 07:09:04;;;;;;;3.35;2.60;;;3.10;37.80;;;;;;5071566;28;20183;-72
2022/12/09 07:11:33;;;;;;;4.38;2.42;;;3.00;37.80;;;;;;5065042;28;20206;-72
2022/12/09 07:13:59;;;;;;;2.95;2.42;;;2.90;38.40;;;;;;5074304;28;20206;-72
2022/12/09 07:16:27;;;;;;;2.15;1.42;;;3.00;38.60;;;;;;5075265;28;20231;-73
2022/12/09 07:18:53;;;;;;;1.90;1.10;;;2.90;38.60;;;;;;5072152;28;20186;-71
2022/12/09 07:21:20;;;;;;;2.00;1.30;;;3.30;39.10;;;;;;5071979;28;20176;-71
2022/12/09 07:23:46;;;;;;;9.55;2.03;;;3.40;37.90;;;;;;5073684;28;20171;-72
2022/12/09 07:26:13;;;;;;;12.35;4.22;;;3.40;37.60;;;;;;5072439;28;20190;-72
2022/12/09 07:28:43;;;;;;;2.10;1.35;;;3.50;37.30;;;;;;5079400;28;20228;-71
2022/12/09 07:31:26;;;;;;;2.60;1.90;;;3.10;37.50;;;;;;5074265;28;20186;-71
2022/12/09 07:33:53;;;;;;;4.05;1.98;;;2.70;39.20;;;;;;5072250;28;20282;-71
2022/12/09 07:36:20;;;;;;;5.05;3.85;;;2.80;38.80;;;;;;5071202;28;20183;-71
2022/12/09 07:38:46;;;;;;;1.90;1.20;;;2.90;39.30;;;;;;5071397;28;20213;-71
2022/12/09 07:41:16;;;;;;;2.27;1.53;;;3.00;38.80;;;;;;5071657;28;20175;-73
2022/12/09 07:43:46;;;;;;;3.88;2.58;;;3.30;38.80;;;;;;5078747;28;20175;-71
2022/12/09 07:46:13;;;;;;;1.90;1.10;;;4.10;37.30;;;;;;5071706;28;20697;-72
2022/12/09 07:48:39;;;;;;;2.20;1.33;;;3.90;36.30;;;;;;5071736;28;20262;-73
2022/12/09 07:51:05;;;;;;;6.57;3.30;;;3.50;37.30;;;;;;5071410;28;20218;-71
2022/12/09 07:53:33;;;;;;;2.10;1.45;;;3.70;36.90;;;;;;5072415;28;20207;-75
2022/12/09 07:56:04;;;;;;;2.05;1.35;;;3.90;36.30;;;;;;5088583;28;20218;-73
2022/12/09 07:58:29;;;;;;;2.10;1.30;;;4.20;36.60;;;;;;5077832;28;20176;-73
2022/12/09 08:00:55;;;;;;;2.13;1.50;;;3.90;36.80;;;;;;5071871;28;20239;-73
2022/12/09 08:03:21;;;;;;;2.30;1.47;;;4.10;36.80;;;;;;5071279;28;20278;-73
2022/12/09 08:05:47;;;;;;;2.40;1.50;;;4.20;35.90;;;;;;5070437;28;20218;-74
2022/12/09 08:08:13;;;;;;;2.10;1.40;;;4.30;36.60;;;;;;5074244;28;20166;-74
2022/12/09 08:10:39;;;;;;;2.10;1.30;;;4.10;36.10;;;;;;5074274;28;20191;-73
2022/12/09 08:13:05;;;;;;;2.37;1.57;;;4.10;35.60;;;;;;5075561;28;20444;-78
2022/12/09 08:15:31;;;;;;;1.90;1.20;;;4.10;35.90;;;;;;5073607;28;20646;-73
2022/12/09 08:17:56;;;;;;;2.72;1.73;;;4.20;36.00;;;;;;5057418;28;20187;-75
2022/12/09 08:20:22;;;;;;;2.20;1.43;;;4.40;35.00;;;;;;5070100;28;20236;-72
2022/12/09 08:22:48;;;;;;;2.57;1.50;;;4.40;35.40;;;;;;5074438;28;20202;-73
2022/12/09 08:25:13;;;;;;;4.40;2.17;;;4.50;35.40;;;;;;5075000;28;20199;-73
2022/12/09 08:27:39;;;;;;;2.87;2.03;;;4.90;33.70;;;;;;5075234;28;20183;-71
2022/12/09 08:30:05;;;;;;;2.43;1.73;;;5.00;33.00;;;;;;5074577;28;20183;-73
2022/12/09 08:32:31;;;;;;;2.42;1.58;;;4.80;33.50;;;;;;5072911;28;20662;-72
2022/12/09 08:34:57;;;;;;;1.80;1.20;;;4.00;35.80;;;;;;5053146;28;20211;-71
2022/12/09 08:37:23;;;;;;;2.03;1.30;;;4.30;35.70;;;;;;5071547;28;20571;-73
2022/12/09 08:39:48;;;;;;;2.20;1.70;;;4.60;34.50;;;;;;5078001;28;20195;-71
2022/12/09 08:42:14;;;;;;;4.83;2.43;;;4.70;34.50;;;;;;5074195;28;20195;-73
2022/12/09 08:44:40;;;;;;;6.13;1.83;;;4.80;34.00;;;;;;5081898;28;20325;-71
2022/12/09 08:47:05;;;;;;;2.13;1.40;;;4.70;34.30;;;;;;5076723;28;20186;-72
2022/12/09 08:49:31;;;;;;;2.77;1.77;;;4.90;34.10;;;;;;5078105;28;20246;-71
2022/12/09 08:51:57;;;;;;;2.50;1.80;;;5.10;32.90;;;;;;5073526;28;20214;-71
2022/12/09 08:54:23;;;;;;;2.00;1.20;;;5.20;33.20;;;;;;5070631;28;20538;-71
2022/12/09 08:56:51;;;;;;;3.43;2.53;;;5.30;32.50;;;;;;5074483;28;20237;-71
2022/12/09 08:59:17;;;;;;;2.95;1.95;;;5.20;33.30;;;;;;5074707;28;20274;-71
2022/12/09 09:01:43;;;;;;;2.10;1.50;;;4.90;33.90;;;;;;5075406;28;20282;-71
2022/12/09 09:04:11;;;;;;;3.38;2.05;;;5.30;33.00;;;;;;5073222;28;20437;-71
2022/12/09 09:06:38;;;;;;;2.55;1.50;;;5.50;32.40;;;;;;5074675;28;20238;-71
2022/12/09 09:09:05;;;;;;;3.65;2.45;;;5.50;33.10;;;;;;5077633;28;20205;-70
2022/12/09 09:11:31;;;;;;;3.42;2.50;;;5.60;32.50;;;;;;5073969;28;20223;-70
2022/12/09 09:13:57;;;;;;;2.08;1.40;;;5.60;32.80;;;;;;5073238;28;20211;-70
2022/12/09 09:16:25;;;;;;;7.60;2.23;;;5.80;32.50;;;;;;5073389;28;20202;-71
2022/12/09 09:18:51;;;;;;;1.90;1.30;;;5.60;31.90;;;;;;5074483;28;20814;-71
2022/12/09 09:21:20;;;;;;;4.45;2.30;;;5.40;33.20;;;;;;5081374;28;20676;-71
2022/12/09 09:23:46;;;;;;;5.10;3.05;;;5.60;33.30;;;;;;5058984;28;20183;-72
2022/12/09 09:26:18;;;;;;;2.45;1.60;;;5.30;32.70;;;;;;5081502;28;20183;-71
2022/12/09 09:28:44;;;;;;;6.57;1.63;;;5.10;33.50;;;;;;5073829;28;20179;-71
2022/12/09 09:31:13;;;;;;;1.90;1.30;;;5.20;34.10;;;;;;5075746;28;20667;-71
2022/12/09 09:33:39;;;;;;;2.55;2.38;;;5.70;32.70;;;;;;5073827;28;20556;-70
2022/12/09 09:36:07;;;;;;;3.78;2.10;;;5.90;32.30;;;;;;5080387;28;20276;-71
2022/12/09 09:38:33;;;;;;;2.38;1.60;;;5.90;32.00;;;;;;5076850;28;20168;-70
2022/12/09 09:41:00;;;;;;;4.07;2.53;;;5.90;32.40;;;;;;5075938;28;20647;-71
2022/12/09 09:43:32;;;;;;;3.40;2.03;;;5.70;32.50;;;;;;5075355;28;20663;-71
2022/12/09 09:45:58;;;;;;;5.72;2.33;;;5.80;32.40;;;;;;5077197;28;20178;-71
2022/12/09 09:48:32;;;;;;;2.17;1.55;;;5.50;33.30;;;;;;5068640;28;20285;-74
2022/12/09 09:51:11;;;;;;;2.65;1.80;;;5.40;34.10;;;;;;5082732;28;20277;-71
2022/12/09 09:53:37;;;;;;;2.33;1.60;;;5.50;34.10;;;;;;5080639;28;20769;-73
2022/12/09 09:56:25;;;;;;;5.83;2.43;;;5.80;33.80;;;;;;5075560;28;20283;-71
2022/12/09 09:59:01;;;;;;;2.03;1.40;;;5.80;33.60;;;;;;5069742;28;20237;-71
2022/12/09 10:01:32;;;;;;;2.85;2.13;;;5.50;34.10;;;;;;5079599;28;20612;-71
2022/12/09 10:04:13;;;;;;;2.65;1.67;;;4.90;35.50;;;;;;5074348;28;20184;-71
2022/12/09 10:06:56;;;;;;;1.92;1.33;;;4.60;35.70;;;;;;5076097;28;20233;-71
2022/12/09 10:09:42;;;;;;;6.75;3.78;;;4.50;36.30;;;;;;5074984;28;20191;-71
2022/12/09 10:12:14;;;;;;;3.42;2.08;;;4.40;36.00;;;;;;5065394;28;20210;-72
2022/12/09 10:14:57;;;;;;;2.22;1.60;;;4.60;36.30;;;;;;5075976;28;20341;-71
2022/12/09 10:17:40;;;;;;;3.28;1.63;;;4.90;35.60;;;;;;5080733;28;20182;-71
2022/12/09 10:20:13;;;;;;;1.80;1.13;;;4.40;36.70;;;;;;5069025;28;20178;-71
2022/12/09 10:22:47;;;;;;;2.25;1.67;;;4.30;36.60;;;;;;5075099;28;20195;-71
2022/12/09 10:25:24;;;;;;;2.35;1.65;;;4.50;37.00;;;;;;5077683;28;20183;-71
2022/12/09 10:28:23;;;;;;;2.78;1.95;;;5.00;35.70;;;;;;5057752;28;20183;-71
2022/12/09 10:30:50;;;;;;;2.80;1.40;;;5.20;34.60;;;;;;5071901;28;20550;-71
2022/12/09 10:33:19;;;;;;;2.00;1.40;;;5.40;33.90;;;;;;5076210;28;20199;-73
2022/12/09 10:35:45;;;;;;;2.53;1.58;;;5.40;33.90;;;;;;5074739;28;20187;-71
2022/12/09 10:38:13;;;;;;;2.17;1.55;;;5.30;33.90;;;;;;5076869;28;20175;-71
2022/12/09 10:40:45;;;;;;;1.90;1.30;;;5.20;34.30;;;;;;5071624;28;20180;-71
2022/12/09 10:43:43;;;;;;;2.65;1.95;;;5.80;32.60;;;;;;5074698;28;20201;-72
2022/12/09 10:46:22;;;;;;;1.95;1.33;;;6.20;31.90;;;;;;5067521;28;20293;-73
2022/12/09 10:48:48;;;;;;;3.55;2.40;;;5.90;32.40;;;;;;5068740;28;20276;-75
2022/12/09 10:51:18;;;;;;;4.50;2.43;;;5.50;33.30;;;;;;5073068;28;20191;-71
2022/12/09 10:54:09;;;;;;;5.72;2.30;;;5.30;33.80;;;;;;5072497;28;20287;-71
2022/12/09 10:56:38;;;;;;;1.90;1.20;;;5.40;33.70;;;;;;5074899;28;20701;-71
2022/12/09 10:59:18;;;;;;;1.80;1.13;;;5.50;33.40;;;;;;5082258;28;20229;-71
2022/12/09 11:01:50;;;;;;;1.98;1.42;;;5.40;33.10;;;;;;5078416;28;20277;-74
2022/12/09 11:04:26;;;;;;;2.15;1.50;;;5.50;34.10;;;;;;5073969;28;20184;-71
2022/12/09 11:06:55;;;;;;;1.90;1.20;;;5.60;32.90;;;;;;5073835;28;20197;-71
2022/12/09 11:09:26;;;;;;;2.03;1.40;;;5.70;32.70;;;;;;5068666;28;20241;-71
2022/12/09 11:11:52;;;;;;;2.10;1.40;;;5.30;33.50;;;;;;5072097;28;21995;-71
2022/12/09 11:14:30;;;;;;;4.05;2.72;;;5.60;33.00;;;;;;5079456;28;20211;-73
2022/12/09 11:16:59;;;;;;;3.55;2.28;;;6.00;32.60;;;;;;5075484;28;20186;-71
2022/12/09 11:19:34;;;;;;;1.80;1.20;;;6.20;32.30;;;;;;5073935;28;20179;-71
2022/12/09 11:22:24;;;;;;;2.15;1.55;;;6.30;31.90;;;;;;5078037;28;20206;-73
2022/12/09 11:25:04;;;;;;;1.90;1.30;;;6.50;31.40;;;;;;5073766;28;20224;-71
2022/12/09 11:27:32;;;;;;;5.28;1.80;;;6.40;31.10;;;;;;5070459;28;20179;-73
2022/12/09 11:30:13;;;;;;;2.60;1.48;;;6.60;30.40;;;;;;5070136;28;20183;-71
2022/12/09 11:33:13;;;;;;;2.00;1.50;;;7.00;29.30;;;;;;5063043;28;20187;-71
2022/12/09 11:35:42;;;;;;;1.90;1.30;;;6.60;30.00;;;;;;5033233;28;20686;-71
2022/12/09 11:38:36;;;;;;;2.63;1.65;;;6.50;30.30;;;;;;5073076;28;20199;-73
2022/12/09 11:44:29;;;;;;;2.20;1.60;;;5.70;32.50;;;;;;5072593;28;20810;-71
2022/12/09 11:47:04;;;;;;;3.10;1.58;;;5.80;32.10;;;;;;5074359;28;20187;-71
2022/12/09 11:49:34;;;;;;;2.00;1.40;;;6.40;30.80;;;;;;5078664;28;20200;-71
2022/12/09 11:52:03;;;;;;;2.10;1.40;;;6.50;31.60;;;;;;5069873;28;20215;-71
2022/12/09 11:54:34;;;;;;;1.90;1.30;;;6.00;31.70;;;;;;5073175;28;20230;-72
2022/12/09 11:57:02;;;;;;;2.05;1.30;;;5.80;32.40;;;;;;5079457;28;20183;-72
2022/12/09 11:59:43;;;;;;;4.93;1.85;;;5.80;32.40;;;;;;5068307;28;20190;-71
2022/12/09 12:02:20;;;;;;;2.00;1.20;;;6.00;31.50;;;;;;5072238;28;20301;-72
2022/12/09 12:05:11;;;;;;;2.20;1.50;;;6.10;31.70;;;;;;5074104;28;20186;-71
2022/12/09 12:08:01;;;;;;;2.55;1.63;;;5.30;33.50;;;;;;5074711;28;20203;-75
2022/12/09 12:10:50;;;;;;;3.45;2.85;;;5.60;33.10;;;;;;5072378;28;20194;-72
2022/12/09 12:13:20;;;;;;;2.28;1.40;;;6.30;31.40;;;;;;5075425;28;20206;-71
2022/12/09 12:16:05;;;;;;;2.28;1.73;;;6.50;31.90;;;;;;5071445;28;20183;-72
2022/12/09 12:18:38;;;;;;;2.00;1.23;;;6.40;31.30;;;;;;5077840;28;20683;-73
2022/12/09 12:21:12;;;;;;;2.38;1.63;;;6.40;32.00;;;;;;5073592;28;20265;-72
2022/12/09 12:24:05;;;;;;;4.32;3.13;;;6.50;31.90;;;;;;5073476;28;20193;-73
2022/12/09 12:26:54;;;;;;;1.90;1.30;;;6.30;32.40;;;;;;5070300;28;20991;-71
2022/12/09 12:29:42;;;;;;;2.33;1.42;;;6.40;31.80;;;;;;5067712;28;20193;-73
2022/12/09 12:32:36;;;;;;;2.50;1.60;;;6.50;31.00;;;;;;5074173;28;20209;-72
2022/12/09 12:35:25;;;;;;;3.70;2.35;;;6.70;30.50;;;;;;5072560;28;20238;-72
2022/12/09 12:37:50;;;;;;;1.90;1.20;;;6.90;30.70;;;;;;5073227;28;20190;-71
2022/12/09 12:40:26;;;;;;;2.10;1.43;;;6.70;30.50;;;;;;5075401;28;20593;-71
2022/12/09 12:46:16;;;;;;;2.20;1.50;;;6.50;31.20;;;;;;5081937;28;20194;-74
2022/12/09 12:48:48;;;;;;;2.50;1.80;;;6.40;31.80;;;;;;5097065;28;20171;-75
2022/12/09 12:51:18;;;;;;;1.80;1.10;;;6.30;31.70;;;;;;5096748;28;20282;-72
2022/12/09 12:54:21;;;;;;;1.90;1.30;;;5.70;33.20;;;;;;5095680;28;20228;-74
2022/12/09 12:57:15;;;;;;;2.00;1.30;;;6.00;32.90;;;;;;5085446;28;20178;-74
2022/12/09 13:00:09;;;;;;;2.80;1.63;;;6.20;32.60;;;;;;5058714;28;20249;-71
2022/12/09 13:02:41;;;;;;;2.38;1.55;;;6.40;32.00;;;;;;5086081;28;20205;-74
2022/12/09 13:05:34;;;;;;;8.90;3.22;;;6.50;31.80;;;;;;5088550;28;20191;-73
2022/12/09 13:08:08;;;;;;;2.10;1.60;;;6.70;31.00;;;;;;5097813;28;20211;-74
2022/12/09 13:10:49;;;;;;;5.32;3.20;;;6.40;32.10;;;;;;5091229;28;20203;-72
2022/12/09 13:13:23;;;;;;;2.38;1.40;;;6.30;32.80;;;;;;5078290;28;20261;-72
2022/12/09 13:15:54;;;;;;;2.83;1.95;;;6.50;32.80;;;;;;5083996;28;20182;-72
2022/12/09 13:18:34;;;;;;;1.77;1.10;;;6.30;32.40;;;;;;5096275;28;20166;-74
2022/12/09 13:21:02;;;;;;;1.90;1.20;;;6.50;32.10;;;;;;5097297;28;20178;-75